Aviation Digital Data Service (ADDS)

Output produced by METARs form (0034 UTC 03 March 2015)
found at http://aviationweather.gov/adds/metars/
 
KBVI 022322Z 0300/0324 VRB03KT P6SM BKN150 
     FM031800 13005KT 5SM -FZRASN OVC020 
     FM032100 18008KT 2SM -RA BR OVC008 AMD NOT SKED 0302/0312